Stuyvesant — WNFX — position and weather

sailwx.info

Track history (hours):
 
Tides and Currents Weather Stations Pressure Air Temp Water Temp Dewpoint Dewpoint Depression Visibility Wind Speed Wind Dir Waves Ship Positions

Stuyvesant

More information available from US FCC via Universal Licensing System and Coast Guard Vessel Documentation Center.

Last reported at 2014-Sep-09 14:33 UTC. Time now 2014-Sep-20 08:00 UTC.
Position N 25°52' W 079°46'.
Warning: this ship's position is 10 days out of date.

Length 122 m; draft 10.2 m.

Type: Cargo ship. MMSI: 368098000.

Date/timePositionNaut miles runAvg speedWind from/ knotsBaromVisibWave heightAir tempDewpointWater temp
2014-Sep-09 14:33N 25°52' W 079°46'6 6.5
2014-Sep-09 13:33N 25°58' W 079°45'6 6.3
2014-Sep-09 12:33N 26°05' W 079°43'6 6.2
2014-Sep-09 11:33N 26°11' W 079°42'6 6.3
2014-Sep-09 10:33N 26°17' W 079°41'6 6.5
2014-Sep-09 09:33N 26°23' W 079°40'7 6.6
2014-Sep-09 08:33N 26°30' W 079°39'6 6.4
2014-Sep-09 07:33N 26°36' W 079°38'  
2014-Sep-06 00:04N 37°00' W 076°15'4 8.1
2014-Sep-05 23:32N 36°58' W 076°20'6 2.1
2014-Sep-05 20:27N 36°52' W 076°19'0 0.0
2014-Sep-05 19:30N 36°52' W 076°19'0 0.0
2014-Sep-05 13:15N 36°52' W 076°19'0 0.0
2014-Sep-05 12:24N 36°52' W 076°19'0 0.0
2014-Sep-05 11:06N 36°52' W 076°19'0 0.0
2014-Sep-05 10:27N 36°52' W 076°19'0 0.0
2014-Sep-05 09:30N 36°52' W 076°19'0 0.0
2014-Sep-05 05:33N 36°52' W 076°19'0 0.0
2014-Sep-04 22:12N 36°52' W 076°19'0 0.0
2014-Sep-04 21:33N 36°52' W 076°19'0 0.0
2014-Sep-04 15:26N 36°52' W 076°19'0 0.0
2014-Sep-04 14:17N 36°52' W 076°19'0 0.0
2014-Sep-04 07:29N 36°52' W 076°19'0 0.0
2014-Sep-04 06:14N 36°52' W 076°19'0 0.0
2014-Sep-04 05:26N 36°52' W 076°19'0 0.0
2014-Sep-04 00:05N 36°52' W 076°19'0 0.0
2014-Sep-03 22:29N 36°52' W 076°19'0 0.0
2014-Sep-03 17:29N 36°52' W 076°19'0 0.0
2014-Sep-03 10:05N 36°52' W 076°19'0 0.0
2014-Sep-03 06:23N 36°52' W 076°19'0 0.0
2014-Sep-03 03:04N 36°52' W 076°19'0 0.0
2014-Sep-03 00:31N 36°52' W 076°19'0 0.0
2014-Sep-02 19:04N 36°52' W 076°19'0 0.0
2014-Sep-02 13:04N 36°52' W 076°19'0 0.0
2014-Sep-02 12:31N 36°52' W 076°19'0 0.0
2014-Sep-02 05:16N 36°52' W 076°19'0 0.0
2014-Sep-02 04:04N 36°52' W 076°19'0 0.0
2014-Sep-02 02:28N 36°52' W 076°19'0 0.0
2014-Sep-02 01:25N 36°52' W 076°19'0 0.0
2014-Sep-01 22:10N 36°52' W 076°19'0 0.0
2014-Sep-01 21:31N 36°52' W 076°19'0 0.0
2014-Sep-01 20:10N 36°52' W 076°19'0 0.0
2014-Sep-01 19:13N 36°52' W 076°19'0 0.0
2014-Sep-01 18:10N 36°52' W 076°19'0 0.0
2014-Sep-01 15:31N 36°52' W 076°19'0 0.0
2014-Sep-01 14:21N 36°52' W 076°19'0 0.0
2014-Sep-01 13:33N 36°52' W 076°19'0 0.0
2014-Sep-01 10:21N 36°52' W 076°19'0 0.0
2014-Aug-31 16:32N 36°52' W 076°19'3 3.2
2014-Aug-31 15:33N 36°55' W 076°20'3 0.8
2014-Aug-31 12:26N 36°58' W 076°21'0 0.0
2014-Aug-31 11:23N 36°58' W 076°21'0 0.0
2014-Aug-31 10:11N 36°58' W 076°21'0 0.0
2014-Aug-31 05:20N 36°57' W 076°21'0 0.0
2014-Aug-30 23:23N 36°58' W 076°21'0 0.0
2014-Aug-30 22:29N 36°58' W 076°21'0 0.0
2014-Aug-30 21:32N 36°58' W 076°21'  
Track history (hours):
 
Tides and Currents Weather Stations Pressure Air Temp Water Temp Dewpoint Dewpoint Depression Visibility Wind Speed Wind Dir Waves Ship Positions

Stuyvesant

More information available from US FCC via Universal Licensing System and Coast Guard Vessel Documentation Center.

Last reported at 2014-Sep-09 14:33 UTC. Time now 2014-Sep-20 08:00 UTC.
Position N 25°52' W 079°46'.
Warning: this ship's position is 10 days out of date.

Length 122 m; draft 10.2 m.

Type: Cargo ship. MMSI: 368098000.

Date/timePositionNaut miles runAvg speedWind from/ knotsBaromVisibWave heightAir tempDewpointWater temp
2014-Sep-09 14:33N 25°52' W 079°46'6 6.5
2014-Sep-09 13:33N 25°58' W 079°45'6 6.3
2014-Sep-09 12:33N 26°05' W 079°43'6 6.2
2014-Sep-09 11:33N 26°11' W 079°42'6 6.3
2014-Sep-09 10:33N 26°17' W 079°41'6 6.5
2014-Sep-09 09:33N 26°23' W 079°40'7 6.6
2014-Sep-09 08:33N 26°30' W 079°39'6 6.4
2014-Sep-09 07:33N 26°36' W 079°38'  
2014-Sep-06 00:04N 37°00' W 076°15'4 8.1
2014-Sep-05 23:32N 36°58' W 076°20'6 2.1
2014-Sep-05 20:27N 36°52' W 076°19'0 0.0
2014-Sep-05 19:30N 36°52' W 076°19'0 0.0
2014-Sep-05 13:15N 36°52' W 076°19'0 0.0
2014-Sep-05 12:24N 36°52' W 076°19'0 0.0
2014-Sep-05 11:06N 36°52' W 076°19'0 0.0
2014-Sep-05 10:27N 36°52' W 076°19'0 0.0
2014-Sep-05 09:30N 36°52' W 076°19'0 0.0
2014-Sep-05 05:33N 36°52' W 076°19'0 0.0
2014-Sep-04 22:12N 36°52' W 076°19'0 0.0
2014-Sep-04 21:33N 36°52' W 076°19'0 0.0
2014-Sep-04 15:26N 36°52' W 076°19'0 0.0
2014-Sep-04 14:17N 36°52' W 076°19'0 0.0
2014-Sep-04 07:29N 36°52' W 076°19'0 0.0
2014-Sep-04 06:14N 36°52' W 076°19'0 0.0
2014-Sep-04 05:26N 36°52' W 076°19'0 0.0
2014-Sep-04 00:05N 36°52' W 076°19'0 0.0
2014-Sep-03 22:29N 36°52' W 076°19'0 0.0
2014-Sep-03 17:29N 36°52' W 076°19'0 0.0
2014-Sep-03 10:05N 36°52' W 076°19'0 0.0
2014-Sep-03 06:23N 36°52' W 076°19'0 0.0
2014-Sep-03 03:04N 36°52' W 076°19'0 0.0
2014-Sep-03 00:31N 36°52' W 076°19'0 0.0
2014-Sep-02 19:04N 36°52' W 076°19'0 0.0
2014-Sep-02 13:04N 36°52' W 076°19'0 0.0
2014-Sep-02 12:31N 36°52' W 076°19'0 0.0
2014-Sep-02 05:16N 36°52' W 076°19'0 0.0
2014-Sep-02 04:04N 36°52' W 076°19'0 0.0
2014-Sep-02 02:28N 36°52' W 076°19'0 0.0
2014-Sep-02 01:25N 36°52' W 076°19'0 0.0
2014-Sep-01 22:10N 36°52' W 076°19'0 0.0
2014-Sep-01 21:31N 36°52' W 076°19'0 0.0
2014-Sep-01 20:10N 36°52' W 076°19'0 0.0
2014-Sep-01 19:13N 36°52' W 076°19'0 0.0
2014-Sep-01 18:10N 36°52' W 076°19'0 0.0
2014-Sep-01 15:31N 36°52' W 076°19'0 0.0
2014-Sep-01 14:21N 36°52' W 076°19'0 0.0
2014-Sep-01 13:33N 36°52' W 076°19'0 0.0
2014-Sep-01 10:21N 36°52' W 076°19'0 0.0
2014-Aug-31 16:32N 36°52' W 076°19'3 3.2
2014-Aug-31 15:33N 36°55' W 076°20'3 0.8
2014-Aug-31 12:26N 36°58' W 076°21'0 0.0
2014-Aug-31 11:23N 36°58' W 076°21'0 0.0
2014-Aug-31 10:11N 36°58' W 076°21'0 0.0
2014-Aug-31 05:20N 36°57' W 076°21'0 0.0
2014-Aug-30 23:23N 36°58' W 076°21'0 0.0
2014-Aug-30 22:29N 36°58' W 076°21'0 0.0
2014-Aug-30 21:32N 36°58' W 076°21'  

Dump ship's entire track history